Αναφορές Αεροδρομίων

 

KSJC - San Jose, California, USA
Distance from station: ΒΑ 14km
Ενημερώθηκε: 21/01/2022 12:53
Αίθριος
Αίθριος
 Ανεμος από calm
Ανεμος: Απνοια
Θερμοκρασία: 7°C
Σημείο Δρόσου: 5°C
Υγρασία: 87%
Βαρόμετρο: 1023.4 hPa
Clouds: Αίθριος
Visibility: 16 km
2022/01/21 10:53 KSJC 211053Z AUTO 00000KT 10SM CLR 07/05 A3022 RMK AO2 SLP231 T00720050
KNUQ - Moffett Nas/Mtn, California, USA
Distance from station: Β 14km
Ενημερώθηκε: 21/01/2022 13:35

 
2022/01/21 11:35 KNUQ 211135Z AUTO RMK AO2 PNO PWINO TSNO
 
KPAO - Palo Alto, California, USA
Distance from station: ΒΒΔ 23km
Ενημερώθηκε: 20/01/2022 00:47
NOT Current
Αίθριος
Αίθριος
 Ανεμος από ΒΒΔ
Ανεμος: ΒΒΔ 15 km/h
Θερμοκρασία: 15°C
Σημείο Δρόσου: 8°C
Υγρασία: 63%
Βαρόμετρο: 1023 hPa
Clouds: Αίθριος
Visibility: 16 km
2022/01/19 22:47 KPAO 192247Z 33008KT 10SM SKC 15/08 A3021
KRHV - San Jose/Reid, California, USA
Distance from station: ΑΒΑ 19km
Ενημερώθηκε: 21/01/2022 03:47
NOT Current
Few Clouds
Few Clouds
 Ανεμος από calm
Ανεμος: Απνοια
Θερμοκρασία: 15°C
Σημείο Δρόσου: 8°C
Υγρασία: 63%
Βαρόμετρο: 1024.7 hPa
Clouds: Few Clouds
Visibility: 16 km
Cloud details: Few Clouds 3048 m
2022/01/21 01:47 KRHV 210147Z 00000KT 10SM FEW100 15/08 A3026
 
KOAK - Oakland, California, USA
Distance from station: ΒΒΔ 50km
Ενημερώθηκε: 21/01/2022 12:53
Αίθριος
Αίθριος
 Ανεμος από calm
Ανεμος: Απνοια
Θερμοκρασία: 7°C
Σημείο Δρόσου: 6°C
Υγρασία: 93%
Βαρόμετρο: 1023.7 hPa
Clouds: Αίθριος
Visibility: 16 km
2022/01/21 10:53 KOAK 211053Z 00000KT 10SM CLR 07/06 A3023 RMK AO2 SLP237 T00670061 $
KSQL - San Carlos Airpo, California, USA
Distance from station: ΒΔ 34km
Ενημερώθηκε: 21/01/2022 13:35
Αίθριος
Αίθριος
 Ανεμος από calm
Ανεμος: Απνοια
Θερμοκρασία: 8°C
Σημείο Δρόσου: 7°C
Υγρασία: 93%
Βαρόμετρο: 1023 hPa
Clouds: Αίθριος
Visibility: 16 km
2022/01/21 11:35 KSQL 211135Z AUTO 00000KT 10SM CLR 08/07 A3021 RMK AO2
 
KSFO - San Francisco, California, USA
Distance from station: ΒΔ 49km
Ενημερώθηκε: 21/01/2022 12:56
Αίθριος
Αίθριος
 Ανεμος από calm
Ανεμος: Απνοια
Θερμοκρασία: 8°C
Σημείο Δρόσου: 6°C
Υγρασία: 87%
Βαρόμετρο: 1023.7 hPa
Clouds: Αίθριος
Visibility: 16 km
2022/01/21 10:56 KSFO 211056Z 00000KT 10SM CLR 08/06 A3023 RMK AO2 SLP235 T00830061
KE16 - San Martin, California, USA
Distance from station: ΑΝΑ 43km
Ενημερώθηκε: 21/01/2022 13:30
Αίθριος
Αίθριος
 Ανεμος από calm
Ανεμος: Απνοια
Θερμοκρασία: 4°C
Σημείο Δρόσου: 4°C
Υγρασία: 100%
Βαρόμετρο: 1023.4 hPa
Clouds: Αίθριος
Visibility: 16 km
2022/01/21 11:30 KE16 211130Z AUTO 00000KT 10SM CLR 04/04 A3022 RMK AO2 PWINO PNO
 
KWVI - Watsonville, California, USA
Distance from station: ΝΝΑ 44km
Ενημερώθηκε: 21/01/2022 12:53
Αίθριος
Αίθριος
 Ανεμος από ΒΒΔ
Ανεμος: ΒΒΔ 6 km/h
Θερμοκρασία: 7°C
Σημείο Δρόσου: 6°C
Υγρασία: 93%
Βαρόμετρο: 1022.4 hPa
Clouds: Αίθριος
Visibility: 16 km
2022/01/21 10:53 KWVI 211053Z AUTO 33003KT 10SM CLR 07/06 A3019 RMK AO2 SLP223 T00670061
KHAF - Half Moon Bay, California, USA
Distance from station: ΔΒΔ 50km
Ενημερώθηκε: 21/01/2022 13:35
Αίθριος
Αίθριος
 Ανεμος από varies
Ανεμος: varies 7 km/h
Θερμοκρασία: 13°C
Σημείο Δρόσου: 7°C
Υγρασία: 67%
Βαρόμετρο: 1022.4 hPa
Clouds: Αίθριος
Visibility: 16 km
2022/01/21 11:35 KHAF 211135Z AUTO VRB04KT 10SM CLR 13/07 A3019 RMK AO2
 
KHWD - Hayward, California, USA
Distance from station: Β 44km
Ενημερώθηκε: 21/01/2022 12:54
Αίθριος
Αίθριος
 Ανεμος από calm
Ανεμος: Απνοια
Θερμοκρασία: 8°C
Σημείο Δρόσου: 5°C
Υγρασία: 82%
Βαρόμετρο: 1023.4 hPa
Clouds: Αίθριος
Visibility: 16 km
2022/01/21 10:54 KHWD 211054Z AUTO 00000KT 10SM CLR 08/05 A3022 RMK AO2 SLP242 T00780050
KLVK - Livermore, California, USA
Distance from station: ΒΒΑ 51km
Ενημερώθηκε: 21/01/2022 12:53
Αίθριος
Αίθριος
 Ανεμος από calm
Ανεμος: Απνοια
Θερμοκρασία: 4°C
Σημείο Δρόσου: 4°C
Υγρασία: 100%
Βαρόμετρο: 1023.7 hPa
Clouds: Αίθριος
Visibility: 11 km
2022/01/21 10:53 KLVK 211053Z AUTO 00000KT 7SM CLR 04/04 A3023 RMK AO2 SLP235 T00440039